Time;durP1;ratioP1;P1;durP2;ratioP2;P2;SDS_P1;SDS_P2;PMS_P1;PMS_P2;Temp;Humidity;BMP_temperature;BMP_pressure;BME280_temperature;BME280_humidity;BME280_pressure;Samples;Min_cycle;Max_cycle;Signal;HPM_P1;HPM_P2
2022/12/05 00:00:53;;;;;;;6.37;3.20;;;4.30;98.00;;;;;;5032020;28;20454;-65
2022/12/05 00:03:20;;;;;;;3.23;2.50;;;4.20;98.00;;;;;;5031893;28;20865;-65
2022/12/05 00:05:48;;;;;;;7.70;3.30;;;4.10;98.00;;;;;;5032057;28;20488;-65
2022/12/05 00:08:15;;;;;;;12.43;4.37;;;4.10;98.00;;;;;;5013771;28;20647;-65
2022/12/05 00:10:42;;;;;;;3.47;2.57;;;4.20;98.00;;;;;;5031842;28;20527;-65
2022/12/05 00:13:09;;;;;;;8.10;3.40;;;4.20;98.00;;;;;;5031752;28;20471;-65
2022/12/05 00:15:37;;;;;;;5.87;2.47;;;4.20;98.00;;;;;;5031855;28;20466;-65
2022/12/05 00:18:06;;;;;;;4.77;2.30;;;4.20;98.00;;;;;;5031689;28;20497;-65
2022/12/05 00:20:34;;;;;;;4.33;2.17;;;4.10;98.00;;;;;;5031698;28;20450;-65
2022/12/05 00:23:02;;;;;;;6.20;3.27;;;4.10;98.00;;;;;;5031493;28;20455;-65
2022/12/05 00:25:29;;;;;;;5.50;2.90;;;4.20;98.00;;;;;;5031430;28;20486;-65
2022/12/05 00:27:56;;;;;;;7.87;2.63;;;4.30;98.00;;;;;;5031671;28;20462;-65
2022/12/05 00:30:23;;;;;;;7.90;2.90;;;4.20;98.00;;;;;;5031621;28;20463;-65
2022/12/05 00:32:50;;;;;;;3.70;2.60;;;4.30;98.00;;;;;;5031723;28;20485;-65
2022/12/05 00:35:19;;;;;;;5.20;2.73;;;4.40;98.00;;;;;;5031534;28;20468;-65
2022/12/05 00:37:46;;;;;;;5.80;2.50;;;4.40;98.00;;;;;;5031666;28;20518;-65
2022/12/05 00:40:13;;;;;;;5.47;3.03;;;4.40;98.00;;;;;;5031183;28;20505;-65
2022/12/05 00:42:40;;;;;;;6.47;3.20;;;4.60;98.00;;;;;;5031462;28;20521;-65
2022/12/05 00:45:08;;;;;;;7.67;2.80;;;4.60;98.00;;;;;;5031256;28;20470;-65
2022/12/05 00:47:36;;;;;;;5.10;2.67;;;4.40;98.00;;;;;;5031228;28;20464;-65
2022/12/05 00:50:04;;;;;;;3.80;2.20;;;4.40;98.00;;;;;;5031138;28;20521;-65
2022/12/05 00:52:33;;;;;;;4.63;3.07;;;4.40;98.00;;;;;;5031364;28;20456;-65
2022/12/05 00:55:00;;;;;;;9.30;3.30;;;4.30;98.00;;;;;;5031259;28;20452;-65
2022/12/05 00:57:27;;;;;;;4.03;2.43;;;4.30;98.00;;;;;;5031119;28;20509;-65
2022/12/05 00:59:54;;;;;;;5.27;2.40;;;4.20;98.00;;;;;;5031360;28;20471;-65
2022/12/05 01:02:22;;;;;;;4.13;1.83;;;4.20;98.00;;;;;;5031153;28;20851;-65
2022/12/05 01:04:49;;;;;;;6.23;2.93;;;4.20;98.00;;;;;;5031081;28;20475;-65
2022/12/05 01:07:17;;;;;;;2.40;2.10;;;4.20;98.00;;;;;;5030929;28;20478;-65
2022/12/05 01:09:45;;;;;;;2.13;1.97;;;4.30;98.00;;;;;;5031002;28;20488;-65
2022/12/05 01:12:12;;;;;;;4.73;3.10;;;4.30;98.00;;;;;;5031090;28;20822;-65
2022/12/05 01:14:39;;;;;;;4.33;2.20;;;4.30;98.00;;;;;;5031034;28;20455;-65
2022/12/05 01:17:07;;;;;;;3.80;2.60;;;4.40;98.00;;;;;;5013501;28;20867;-65
2022/12/05 01:19:34;;;;;;;5.00;2.93;;;4.30;98.00;;;;;;5032469;28;20458;-65
2022/12/05 01:22:01;;;;;;;3.10;2.30;;;4.20;98.00;;;;;;5017581;28;20942;-65
2022/12/05 01:24:29;;;;;;;6.30;2.17;;;4.20;98.00;;;;;;5035012;28;20461;-65
2022/12/05 01:26:58;;;;;;;3.23;2.07;;;4.30;98.00;;;;;;5034993;28;20538;-65
2022/12/05 01:29:26;;;;;;;1.97;1.73;;;4.30;98.00;;;;;;5035050;28;20537;-65
2022/12/05 01:31:54;;;;;;;3.87;2.20;;;4.40;98.00;;;;;;5035043;28;20512;-65
2022/12/05 01:34:23;;;;;;;6.77;3.07;;;4.30;98.00;;;;;;5034941;28;20462;-65
2022/12/05 01:36:50;;;;;;;3.87;2.77;;;4.30;98.00;;;;;;5034937;28;20829;-65
2022/12/05 01:39:17;;;;;;;3.77;2.27;;;4.30;98.00;;;;;;5034626;28;20464;-65
2022/12/05 01:41:47;;;;;;;4.37;2.87;;;4.20;98.00;;;;;;5034691;28;20460;-65
2022/12/05 01:44:51;;;;;;;5.80;2.70;;;4.20;98.00;;;;;;5034449;28;20522;-65
2022/12/05 01:47:21;;;;;;;4.90;3.10;;;4.30;98.00;;;;;;5034487;28;20526;-65
2022/12/05 01:49:48;;;;;;;3.63;2.20;;;4.40;98.00;;;;;;5034430;28;20486;-65
2022/12/05 01:52:18;;;;;;;4.90;2.70;;;4.40;98.00;;;;;;5034247;28;20466;-65
2022/12/05 01:54:48;;;;;;;2.90;2.00;;;4.30;98.00;;;;;;5034503;28;20512;-65
2022/12/05 01:57:15;;;;;;;5.37;2.03;;;4.50;98.00;;;;;;5034267;28;20475;-65
2022/12/05 01:59:47;;;;;;;2.97;2.37;;;4.40;98.00;;;;;;5034249;28;20450;-65
2022/12/05 02:02:14;;;;;;;8.30;2.90;;;4.40;98.00;;;;;;5034116;28;20468;-65
2022/12/05 02:04:50;;;;;;;3.83;2.63;;;4.40;98.00;;;;;;5034276;28;20456;-65
2022/12/05 02:07:19;;;;;;;4.67;2.87;;;4.40;98.00;;;;;;5033950;28;20828;-65
2022/12/05 02:09:49;;;;;;;4.37;2.50;;;4.40;98.00;;;;;;5034075;28;20517;-65
2022/12/05 02:12:18;;;;;;;4.67;2.90;;;4.40;98.00;;;;;;5034025;28;20463;-65
2022/12/05 02:14:59;;;;;;;5.10;2.37;;;4.40;98.00;;;;;;5034179;28;20460;-65
2022/12/05 02:17:36;;;;;;;6.60;3.10;;;4.40;98.00;;;;;;5033951;28;20464;-65
2022/12/05 02:20:21;;;;;;;3.50;2.67;;;4.50;98.00;;;;;;5034076;28;20458;-65
2022/12/05 02:23:27;;;;;;;3.73;2.13;;;4.30;98.00;;;;;;5034154;28;20458;-65
2022/12/05 02:26:22;;;;;;;2.30;1.90;;;4.30;98.00;;;;;;5033971;28;20831;-65
2022/12/05 02:29:23;;;;;;;7.90;3.23;;;4.30;98.00;;;;;;5033476;28;20505;-65
2022/12/05 02:31:57;;;;;;;8.53;2.83;;;4.40;98.00;;;;;;5033598;28;20868;-65
2022/12/05 02:34:31;;;;;;;6.10;2.77;;;4.40;98.00;;;;;;5033748;28;20823;-65
2022/12/05 02:37:04;;;;;;;4.97;3.20;;;4.40;98.00;;;;;;5033693;28;20447;-65
2022/12/05 02:39:41;;;;;;;5.03;2.30;;;4.40;98.00;;;;;;5033660;28;20458;-65
2022/12/05 02:42:13;;;;;;;4.80;2.47;;;4.30;98.00;;;;;;5033548;28;20516;-65
2022/12/05 02:44:45;;;;;;;4.33;2.00;;;4.40;98.00;;;;;;5033674;28;20487;-65
2022/12/05 02:47:18;;;;;;;4.00;2.40;;;4.40;98.00;;;;;;5033314;28;20993;-65
2022/12/05 02:49:45;;;;;;;3.50;2.50;;;4.30;98.00;;;;;;5015916;28;20482;-65
2022/12/05 02:52:15;;;;;;;6.10;3.10;;;4.30;98.00;;;;;;5033214;28;20467;-65
2022/12/05 02:54:46;;;;;;;5.17;3.03;;;4.40;98.00;;;;;;5033538;28;20458;-65
2022/12/05 02:57:15;;;;;;;5.30;3.17;;;4.40;98.00;;;;;;5033346;28;20451;-65
2022/12/05 02:59:42;;;;;;;3.37;2.80;;;4.40;98.00;;;;;;5033667;28;20883;-65
2022/12/05 03:02:22;;;;;;;2.40;1.90;;;4.50;98.00;;;;;;5033136;28;20604;-65
2022/12/05 03:04:50;;;;;;;4.50;2.90;;;4.50;98.00;;;;;;5033393;28;20537;-65
2022/12/05 03:07:20;;;;;;;3.90;2.77;;;4.50;98.00;;;;;;5034144;28;20482;-65
2022/12/05 03:09:52;;;;;;;7.33;3.43;;;4.40;98.00;;;;;;5033489;28;20466;-65
2022/12/05 03:12:22;;;;;;;6.67;2.87;;;4.50;98.00;;;;;;5034019;28;20463;-65
2022/12/05 03:14:55;;;;;;;5.20;3.10;;;4.40;98.00;;;;;;5033373;28;20544;-65
2022/12/05 03:17:24;;;;;;;4.60;2.93;;;4.30;98.00;;;;;;5033195;28;20880;-65
2022/12/05 03:19:57;;;;;;;4.20;2.03;;;4.30;98.00;;;;;;5033167;28;20455;-65
2022/12/05 03:22:30;;;;;;;2.97;2.30;;;4.40;98.00;;;;;;5032993;28;20543;-65
2022/12/05 03:24:58;;;;;;;2.50;2.00;;;4.30;98.00;;;;;;5032937;28;20953;-65
2022/12/05 03:27:38;;;;;;;4.73;3.00;;;4.30;98.00;;;;;;5032673;28;20551;-65
2022/12/05 03:30:08;;;;;;;5.60;2.50;;;4.40;98.00;;;;;;5032770;28;20467;-65
2022/12/05 03:35:32;;;;;;;5.43;3.00;;;4.50;98.00;;;;;;5032853;28;20941;-65
2022/12/05 03:38:08;;;;;;;2.77;1.87;;;4.50;98.00;;;;;;5032575;28;20477;-65
2022/12/05 03:40:41;;;;;;;3.93;1.97;;;4.60;98.00;;;;;;5032563;28;20458;-65
2022/12/05 03:43:14;;;;;;;3.50;2.00;;;4.60;98.00;;;;;;5031554;28;20496;-65
2022/12/05 03:45:47;;;;;;;5.47;2.00;;;4.60;98.00;;;;;;5032437;28;20460;-65
2022/12/05 03:48:21;;;;;;;5.73;3.27;;;4.50;98.00;;;;;;5032306;28;20486;-65
2022/12/05 03:50:52;;;;;;;5.50;2.40;;;4.70;98.00;;;;;;5032277;28;20466;-64
2022/12/05 03:53:24;;;;;;;6.83;2.60;;;4.60;98.00;;;;;;5032064;28;20459;-65
2022/12/05 03:55:57;;;;;;;5.10;3.23;;;4.60;98.00;;;;;;5032111;28;20491;-65
2022/12/05 03:58:30;;;;;;;4.67;2.33;;;4.50;98.00;;;;;;5032069;28;20504;-65
2022/12/05 04:00:59;;;;;;;7.27;2.23;;;4.40;98.00;;;;;;5032177;28;20465;-65
2022/12/05 04:03:38;;;;;;;6.00;2.83;;;4.40;98.00;;;;;;5031972;28;20827;-65
2022/12/05 04:06:15;;;;;;;5.53;3.07;;;4.40;98.00;;;;;;5032181;28;20806;-65
2022/12/05 04:08:51;;;;;;;2.47;1.73;;;4.30;98.00;;;;;;5014559;28;20448;-65
2022/12/05 04:11:23;;;;;;;6.00;2.73;;;4.30;98.00;;;;;;5032111;28;20462;-65
2022/12/05 04:13:53;;;;;;;3.53;2.63;;;4.30;98.00;;;;;;5032167;28;20464;-65
2022/12/05 04:19:12;;;;;;;3.73;2.10;;;4.50;98.00;;;;;;5031951;28;20444;-65
2022/12/05 04:21:42;;;;;;;6.33;3.00;;;4.40;98.00;;;;;;5031759;28;20993;-65
2022/12/05 04:27:09;;;;;;;8.03;3.70;;;4.40;98.00;;;;;;5031302;28;20501;-65
2022/12/05 04:29:42;;;;;;;5.27;2.90;;;4.50;98.00;;;;;;5031629;28;20464;-65
2022/12/05 04:32:13;;;;;;;7.40;2.63;;;4.40;98.00;;;;;;5031433;28;20454;-65
2022/12/05 04:34:45;;;;;;;5.00;2.70;;;4.30;98.00;;;;;;5031572;28;20479;-65
2022/12/05 04:37:18;;;;;;;6.77;4.00;;;4.30;98.00;;;;;;5031382;28;20464;-65
2022/12/05 04:40:04;;;;;;;5.20;2.40;;;4.20;98.00;;;;;;5031475;28;20483;-65
2022/12/05 04:42:34;;;;;;;3.63;2.40;;;4.10;98.00;;;;;;5016239;28;20467;-65
2022/12/05 04:45:05;;;;;;;8.73;3.30;;;4.10;98.00;;;;;;5031514;28;20736;-65
2022/12/05 04:47:39;;;;;;;4.77;3.13;;;4.10;98.00;;;;;;5031354;28;20856;-65
2022/12/05 04:50:09;;;;;;;2.70;1.80;;;4.10;98.00;;;;;;5031153;28;21020;-65
2022/12/05 04:52:39;;;;;;;6.87;2.63;;;4.20;98.00;;;;;;5031328;28;20875;-65
2022/12/05 04:55:12;;;;;;;3.73;2.60;;;4.30;98.00;;;;;;5031178;28;20463;-65
2022/12/05 04:57:48;;;;;;;3.97;2.20;;;4.40;98.00;;;;;;5031330;28;20472;-65
2022/12/05 05:00:16;;;;;;;4.27;2.57;;;4.50;98.00;;;;;;5031113;28;20950;-65
2022/12/05 05:02:50;;;;;;;11.70;2.87;;;4.60;98.00;;;;;;5031182;28;20460;-65
2022/12/05 05:05:19;;;;;;;9.07;3.23;;;4.50;98.00;;;;;;5031382;28;20464;-65
2022/12/05 05:07:53;;;;;;;5.10;2.43;;;4.60;98.00;;;;;;5031138;28;20827;-65
2022/12/05 05:10:26;;;;;;;3.93;2.70;;;4.60;98.00;;;;;;5031121;28;20454;-65
2022/12/05 05:12:55;;;;;;;5.43;2.50;;;4.60;98.00;;;;;;5031049;28;20516;-65
2022/12/05 05:15:22;;;;;;;14.37;2.17;;;4.60;98.00;;;;;;5017496;28;21009;-65
2022/12/05 05:17:49;;;;;;;6.77;2.60;;;4.60;98.00;;;;;;5011218;28;20478;-65
2022/12/05 05:20:26;;;;;;;11.97;3.70;;;4.50;98.00;;;;;;4993804;28;20534;-65
2022/12/05 05:22:55;;;;;;;4.67;2.43;;;4.50;98.00;;;;;;4995262;28;20456;-65
2022/12/05 05:25:26;;;;;;;2.90;2.40;;;4.40;98.00;;;;;;5011137;28;20824;-65
2022/12/05 05:27:55;;;;;;;4.53;2.43;;;4.40;98.00;;;;;;5011193;28;20861;-65
2022/12/05 05:30:24;;;;;;;6.30;2.90;;;4.40;98.00;;;;;;5011159;28;20457;-65
2022/12/05 05:32:51;;;;;;;4.60;2.90;;;4.50;98.00;;;;;;5011057;28;20455;-65
2022/12/05 05:35:19;;;;;;;6.50;2.87;;;4.50;98.00;;;;;;5011067;28;20465;-65
2022/12/05 05:37:46;;;;;;;5.10;2.37;;;4.60;98.00;;;;;;5011155;28;20459;-65
2022/12/05 05:40:15;;;;;;;6.00;3.57;;;4.70;98.00;;;;;;4993601;28;20468;-65
2022/12/05 05:42:44;;;;;;;7.23;2.77;;;4.80;98.00;;;;;;5011082;28;20453;-65
2022/12/05 05:45:12;;;;;;;3.20;2.73;;;4.70;98.00;;;;;;5010437;28;20613;-65
2022/12/05 05:47:39;;;;;;;5.60;3.03;;;4.70;98.00;;;;;;5010895;28;20486;-65
2022/12/05 05:50:08;;;;;;;4.93;2.77;;;4.70;98.00;;;;;;5010836;28;20472;-65
2022/12/05 05:52:36;;;;;;;7.00;3.50;;;4.80;98.00;;;;;;5010901;28;20491;-65
2022/12/05 05:55:05;;;;;;;12.60;2.80;;;4.90;98.00;;;;;;5011056;28;21035;-65
2022/12/05 05:57:34;;;;;;;3.13;2.30;;;4.90;98.00;;;;;;5011187;28;20469;-65
2022/12/05 06:00:01;;;;;;;4.23;2.67;;;4.80;98.00;;;;;;5011189;28;20827;-65
2022/12/05 06:02:32;;;;;;;3.47;2.90;;;4.70;98.00;;;;;;5010839;28;20463;-64
2022/12/05 06:04:59;;;;;;;5.10;2.97;;;4.70;98.00;;;;;;5011512;28;20463;-64
2022/12/05 06:07:26;;;;;;;3.03;2.30;;;4.70;98.00;;;;;;5014308;28;21053;-65
2022/12/05 06:09:53;;;;;;;6.23;3.23;;;4.80;98.00;;;;;;5014475;28;20462;-65
2022/12/05 06:12:21;;;;;;;3.63;2.50;;;4.90;98.00;;;;;;5014393;28;20542;-65
2022/12/05 06:14:50;;;;;;;4.17;2.40;;;4.70;98.00;;;;;;5014399;28;20519;-65
2022/12/05 06:17:17;;;;;;;4.03;2.27;;;4.70;98.00;;;;;;5014183;28;20465;-65
2022/12/05 06:19:44;;;;;;;3.30;1.90;;;4.70;98.00;;;;;;5014213;28;20460;-64
2022/12/05 06:22:11;;;;;;;4.23;2.50;;;4.70;98.00;;;;;;5014161;28;20821;-65
2022/12/05 06:24:38;;;;;;;6.03;2.57;;;4.60;98.00;;;;;;5014256;28;20976;-65
2022/12/05 06:27:05;;;;;;;3.10;2.20;;;4.60;98.00;;;;;;5013997;28;20660;-65
2022/12/05 06:29:32;;;;;;;5.40;2.50;;;4.60;98.00;;;;;;5014095;28;20534;-65
2022/12/05 06:32:01;;;;;;;4.70;3.00;;;4.70;98.00;;;;;;5014037;28;20460;-65
2022/12/05 06:34:28;;;;;;;5.63;3.20;;;4.60;98.00;;;;;;5014003;28;20460;-65
2022/12/05 06:36:55;;;;;;;9.53;3.60;;;4.70;98.00;;;;;;5013929;28;20454;-65
2022/12/05 06:39:22;;;;;;;4.47;2.33;;;4.70;98.00;;;;;;5013891;28;20862;-65
2022/12/05 06:41:49;;;;;;;3.50;1.97;;;4.90;98.00;;;;;;4996375;28;20461;-65
2022/12/05 06:44:16;;;;;;;8.30;2.17;;;4.80;98.00;;;;;;5013776;28;20865;-65
2022/12/05 06:46:43;;;;;;;8.40;3.10;;;4.80;98.00;;;;;;5012437;28;20510;-65
2022/12/05 06:49:12;;;;;;;4.20;1.97;;;4.90;98.00;;;;;;5013694;28;20474;-65
2022/12/05 06:51:39;;;;;;;4.50;1.90;;;4.90;98.00;;;;;;5013989;28;20459;-65
2022/12/05 06:54:06;;;;;;;7.07;2.67;;;4.80;98.00;;;;;;5013620;28;20455;-65
2022/12/05 06:56:34;;;;;;;5.20;2.67;;;4.70;98.00;;;;;;5013364;28;20930;-65
2022/12/05 06:59:01;;;;;;;2.53;1.83;;;4.80;98.00;;;;;;5012963;28;20518;-65
2022/12/05 07:01:40;;;;;;;4.07;2.10;;;4.90;98.00;;;;;;5012877;28;20824;-65
2022/12/05 07:04:12;;;;;;;4.17;2.60;;;4.70;98.00;;;;;;5013388;28;20462;-65
2022/12/05 07:06:40;;;;;;;7.77;2.70;;;4.70;98.00;;;;;;5013513;28;20881;-65
2022/12/05 07:09:08;;;;;;;6.37;2.93;;;4.70;98.00;;;;;;5013090;28;20479;-65
2022/12/05 07:11:35;;;;;;;7.00;2.83;;;4.70;98.00;;;;;;5013435;28;20454;-65
2022/12/05 07:14:03;;;;;;;8.97;3.50;;;4.60;98.00;;;;;;5013280;28;20479;-65
2022/12/05 07:16:31;;;;;;;4.50;3.00;;;4.60;98.00;;;;;;5012166;28;20457;-65
2022/12/05 07:18:58;;;;;;;5.23;2.93;;;4.60;98.00;;;;;;5013110;28;20468;-65
2022/12/05 07:21:27;;;;;;;3.83;2.50;;;4.70;98.00;;;;;;5013072;28;20946;-65
2022/12/05 07:23:55;;;;;;;7.70;2.70;;;4.70;98.00;;;;;;5013098;28;20476;-65
2022/12/05 07:26:23;;;;;;;8.63;2.60;;;4.90;98.00;;;;;;5012929;28;20464;-65
2022/12/05 07:28:52;;;;;;;3.33;2.20;;;5.00;98.00;;;;;;5012803;28;20484;-65
2022/12/05 07:31:21;;;;;;;3.70;2.20;;;5.00;98.00;;;;;;5012773;28;20514;-65
2022/12/05 07:33:49;;;;;;;6.80;3.07;;;5.00;98.00;;;;;;5012789;28;20887;-65
2022/12/05 07:36:19;;;;;;;3.43;2.50;;;5.00;98.00;;;;;;5012930;28;20460;-65
2022/12/05 07:38:48;;;;;;;7.10;3.47;;;5.00;98.00;;;;;;5012864;28;20529;-65
2022/12/05 07:41:20;;;;;;;6.60;2.93;;;5.00;98.00;;;;;;5012847;28;20809;-65
2022/12/05 07:43:47;;;;;;;6.67;3.10;;;4.90;98.00;;;;;;5012653;28;20470;-65
2022/12/05 07:46:15;;;;;;;5.13;3.20;;;4.90;98.00;;;;;;5013209;28;20470;-65
2022/12/05 07:48:42;;;;;;;4.30;2.87;;;5.00;98.00;;;;;;5012516;28;20491;-65
2022/12/05 07:51:10;;;;;;;5.00;2.20;;;5.00;98.00;;;;;;5012513;28;20507;-65
2022/12/05 07:53:38;;;;;;;8.70;3.90;;;5.20;98.00;;;;;;5012173;28;20453;-63
2022/12/05 07:56:08;;;;;;;5.47;2.87;;;5.30;98.00;;;;;;5012395;28;20467;-62
2022/12/05 07:58:35;;;;;;;6.87;2.90;;;5.30;98.00;;;;;;5012397;28;20966;-62
2022/12/05 08:01:07;;;;;;;3.40;2.43;;;5.40;98.00;;;;;;5012365;28;20459;-62
2022/12/05 08:03:34;;;;;;;7.63;4.03;;;5.40;98.00;;;;;;5012389;28;20476;-62
2022/12/05 08:06:03;;;;;;;5.30;2.90;;;5.50;98.00;;;;;;5011772;28;21044;-62
2022/12/05 08:08:30;;;;;;;5.00;2.50;;;5.50;98.00;;;;;;5012212;28;21022;-63
2022/12/05 08:11:03;;;;;;;4.53;2.93;;;5.60;98.00;;;;;;5012293;28;21009;-63
2022/12/05 08:13:32;;;;;;;7.13;3.00;;;5.80;98.00;;;;;;5012266;28;20459;-63
2022/12/05 08:16:02;;;;;;;7.90;2.93;;;5.80;98.00;;;;;;5012030;28;20464;-62
2022/12/05 08:18:29;;;;;;;5.00;3.20;;;5.90;98.00;;;;;;5012421;28;20491;-63
2022/12/05 08:21:00;;;;;;;3.53;2.50;;;6.00;98.00;;;;;;5013185;28;20475;-62
2022/12/05 08:23:29;;;;;;;4.73;2.93;;;5.80;98.00;;;;;;5012332;28;20455;-63
2022/12/05 08:25:56;;;;;;;6.70;2.73;;;5.70;98.00;;;;;;5013116;28;20467;-62
2022/12/05 08:28:23;;;;;;;8.40;3.70;;;5.50;98.00;;;;;;5011221;28;20579;-62
2022/12/05 08:30:52;;;;;;;4.60;2.20;;;5.50;98.00;;;;;;5011943;28;20981;-62
2022/12/05 08:33:19;;;;;;;4.17;2.67;;;5.60;98.00;;;;;;5011643;28;20497;-62
2022/12/05 08:35:49;;;;;;;2.53;2.17;;;5.60;98.00;;;;;;5012019;28;20456;-63
2022/12/05 08:38:16;;;;;;;5.00;3.23;;;5.70;98.00;;;;;;4995102;28;20451;-63
2022/12/05 08:40:46;;;;;;;3.23;2.50;;;5.80;98.00;;;;;;5011976;28;20459;-62
2022/12/05 08:43:13;;;;;;;3.30;2.20;;;5.90;98.00;;;;;;4994616;28;20463;-63
2022/12/05 08:45:40;;;;;;;4.97;2.77;;;5.90;98.00;;;;;;5011847;28;20462;-62
2022/12/05 08:48:09;;;;;;;3.70;2.70;;;5.90;98.00;;;;;;4994185;28;20889;-62
2022/12/05 08:50:39;;;;;;;4.53;2.70;;;6.00;98.00;;;;;;5011725;28;20474;-63
2022/12/05 08:53:06;;;;;;;2.80;2.03;;;6.10;98.00;;;;;;5011683;28;20469;-62
2022/12/05 08:55:34;;;;;;;4.67;3.40;;;6.20;98.00;;;;;;5011511;28;20458;-63
2022/12/05 08:58:01;;;;;;;6.27;3.00;;;6.40;98.00;;;;;;5011384;28;20459;-63
2022/12/05 09:00:29;;;;;;;5.13;3.00;;;6.40;98.00;;;;;;5011522;28;20874;-63
2022/12/05 09:02:56;;;;;;;9.63;2.90;;;6.40;98.00;;;;;;5009515;28;20474;-63
2022/12/05 09:05:25;;;;;;;4.97;3.03;;;6.40;98.00;;;;;;4991594;28;20475;-63
2022/12/05 09:07:52;;;;;;;4.77;2.33;;;6.40;98.00;;;;;;5008794;28;20521;-62
2022/12/05 09:10:19;;;;;;;6.20;2.83;;;6.40;98.00;;;;;;5008950;28;20457;-63
2022/12/05 09:12:46;;;;;;;6.47;2.80;;;6.40;98.00;;;;;;5008605;28;20461;-63
2022/12/05 09:15:13;;;;;;;4.00;2.80;;;6.50;98.00;;;;;;4993182;28;20510;-63
2022/12/05 09:17:40;;;;;;;8.17;4.57;;;6.40;98.00;;;;;;5005895;28;20476;-63
2022/12/05 09:20:10;;;;;;;4.70;2.70;;;6.50;98.00;;;;;;5010332;28;20460;-63
2022/12/05 09:22:39;;;;;;;5.63;2.77;;;6.50;98.00;;;;;;5003458;28;20465;-63
2022/12/05 09:25:07;;;;;;;6.17;3.07;;;6.50;98.00;;;;;;5010284;28;20472;-64
2022/12/05 09:27:34;;;;;;;4.00;2.43;;;6.60;98.00;;;;;;5010378;28;20467;-63
2022/12/05 09:30:02;;;;;;;4.60;3.13;;;6.60;98.00;;;;;;5009697;28;20457;-63
2022/12/05 09:32:29;;;;;;;7.73;2.33;;;6.70;98.00;;;;;;5009902;28;20457;-63
2022/12/05 09:34:56;;;;;;;7.33;2.47;;;6.50;98.00;;;;;;5009825;28;20470;-63
2022/12/05 09:37:23;;;;;;;4.37;2.37;;;6.50;98.00;;;;;;5011470;28;20582;-63
2022/12/05 09:39:52;;;;;;;4.47;2.80;;;6.50;98.00;;;;;;5009189;28;20470;-63
2022/12/05 09:42:37;;;;;;;6.90;3.03;;;6.60;98.00;;;;;;5012000;28;20457;-63
2022/12/05 09:45:23;;;;;;;6.90;3.13;;;6.60;98.00;;;;;;5012468;28;20870;-63
2022/12/05 09:47:56;;;;;;;4.57;3.00;;;6.70;98.00;;;;;;5011646;28;20467;-63
2022/12/05 09:50:27;;;;;;;8.20;3.00;;;6.70;98.00;;;;;;5010435;28;20936;-64
2022/12/05 09:53:14;;;;;;;2.63;1.90;;;6.70;98.00;;;;;;5012409;28;20489;-62
2022/12/05 09:55:47;;;;;;;6.00;2.77;;;7.00;98.00;;;;;;5012037;28;20485;-61
2022/12/05 09:58:26;;;;;;;5.43;2.47;;;8.40;98.00;;;;;;5011990;28;20827;-63
2022/12/05 10:01:01;;;;;;;6.27;3.10;;;9.20;98.00;;;;;;5011951;28;20470;-63
2022/12/05 10:03:36;;;;;;;6.77;3.17;;;9.20;98.00;;;;;;5012012;28;20459;-63
2022/12/05 10:06:18;;;;;;;4.50;2.20;;;8.70;98.00;;;;;;5012162;28;20488;-63
2022/12/05 10:09:10;;;;;;;5.80;2.67;;;8.40;98.00;;;;;;5011791;28;20501;-62
2022/12/05 10:11:46;;;;;;;4.60;2.93;;;8.00;98.00;;;;;;5011701;28;20969;-63
2022/12/05 10:14:20;;;;;;;9.67;3.07;;;7.80;98.00;;;;;;5011551;28;20523;-63
2022/12/05 10:16:53;;;;;;;5.13;2.90;;;7.60;98.00;;;;;;5011391;28;20555;-63
2022/12/05 10:19:26;;;;;;;7.70;2.83;;;7.50;98.00;;;;;;5011615;28;20549;-63
2022/12/05 10:21:57;;;;;;;5.70;2.60;;;7.50;98.00;;;;;;5011841;28;20823;-63
2022/12/05 10:24:31;;;;;;;8.73;3.40;;;7.50;98.00;;;;;;5011740;28;20451;-63
2022/12/05 10:27:09;;;;;;;5.57;3.90;;;7.30;98.00;;;;;;5011679;28;20467;-63
2022/12/05 10:29:42;;;;;;;2.77;2.17;;;7.20;98.00;;;;;;5011656;28;21008;-63
2022/12/05 10:32:14;;;;;;;4.23;2.63;;;7.10;98.00;;;;;;5011703;28;20827;-63
2022/12/05 10:34:44;;;;;;;3.67;2.67;;;7.00;98.00;;;;;;5011510;28;20863;-63
2022/12/05 10:37:15;;;;;;;2.87;2.00;;;7.00;98.00;;;;;;5011217;28;20452;-63
2022/12/05 10:39:43;;;;;;;4.93;2.63;;;7.10;98.00;;;;;;5011396;28;20503;-63
2022/12/05 10:42:15;;;;;;;7.73;3.70;;;7.10;98.00;;;;;;5011205;28;20507;-63
2022/12/05 10:44:42;;;;;;;8.53;2.80;;;7.10;98.00;;;;;;5011203;28;20465;-63
2022/12/05 10:47:11;;;;;;;3.33;2.10;;;6.90;98.00;;;;;;5011529;28;20469;-65
2022/12/05 10:49:39;;;;;;;4.37;2.60;;;6.70;98.00;;;;;;5009141;28;20497;-63
2022/12/05 10:52:07;;;;;;;4.00;2.50;;;6.60;98.00;;;;;;5010374;28;20469;-63
2022/12/05 10:54:41;;;;;;;3.80;2.50;;;6.60;98.00;;;;;;5010915;28;20458;-64
2022/12/05 10:57:22;;;;;;;4.53;2.73;;;6.60;98.00;;;;;;5010761;28;20469;-64
2022/12/05 10:59:49;;;;;;;7.03;3.40;;;6.70;98.00;;;;;;5008778;28;20463;-63
2022/12/05 11:02:23;;;;;;;4.80;2.07;;;6.60;98.00;;;;;;5018523;28;20453;-63
2022/12/05 11:04:50;;;;;;;6.33;2.77;;;6.70;98.00;;;;;;5014284;28;20468;-62
2022/12/05 11:07:33;;;;;;;4.37;2.57;;;6.80;98.00;;;;;;5016173;28;21043;-63
2022/12/05 11:10:02;;;;;;;3.17;2.53;;;6.90;98.00;;;;;;5012922;28;20556;-63
2022/12/05 11:12:38;;;;;;;5.97;3.20;;;6.90;98.00;;;;;;5021545;28;20890;-63
2022/12/05 11:15:20;;;;;;;6.97;3.10;;;7.10;98.00;;;;;;5017226;28;20447;-62
2022/12/05 11:17:50;;;;;;;4.40;2.70;;;7.00;98.00;;;;;;5016667;28;20454;-63
2022/12/05 11:20:39;;;;;;;9.67;3.37;;;7.10;98.00;;;;;;5018646;28;20455;-63
2022/12/05 11:23:27;;;;;;;5.00;2.90;;;7.40;98.00;;;;;;5000369;28;20462;-64
2022/12/05 11:26:00;;;;;;;6.10;3.30;;;7.40;98.00;;;;;;4987817;28;20477;-63
2022/12/05 11:28:40;;;;;;;13.10;3.43;;;7.40;98.00;;;;;;4993699;28;20509;-63
2022/12/05 11:31:23;;;;;;;4.83;2.87;;;7.50;98.00;;;;;;5010455;28;20482;-63
2022/12/05 11:34:02;;;;;;;8.87;3.10;;;7.60;98.00;;;;;;5010211;28;20471;-63
2022/12/05 11:36:38;;;;;;;4.17;2.23;;;7.50;98.00;;;;;;5010219;28;20807;-63
2022/12/05 11:39:05;;;;;;;4.67;2.50;;;7.40;98.00;;;;;;5010214;28;20475;-63
2022/12/05 11:41:48;;;;;;;3.23;2.30;;;7.40;98.00;;;;;;5010550;28;20452;-64
2022/12/05 11:44:49;;;;;;;4.30;2.93;;;7.40;98.00;;;;;;5009926;28;20515;-62
2022/12/05 11:47:28;;;;;;;6.10;3.10;;;7.40;98.00;;;;;;4999482;28;21035;-63
2022/12/05 11:50:24;;;;;;;4.70;2.80;;;7.60;98.00;;;;;;5007821;28;20495;-63
2022/12/05 11:53:03;;;;;;;4.37;2.87;;;7.60;98.00;;;;;;5008905;28;20677;-63
2022/12/05 11:55:37;;;;;;;4.80;2.83;;;7.80;98.00;;;;;;5009875;28;20519;-63
2022/12/05 11:58:39;;;;;;;4.13;2.67;;;8.00;98.00;;;;;;5009807;28;20483;-63
2022/12/05 12:01:20;;;;;;;5.47;3.30;;;8.10;98.00;;;;;;5006598;28;20979;-63
2022/12/05 12:04:18;;;;;;;4.00;2.87;;;8.10;98.00;;;;;;5009217;28;20610;-63
2022/12/05 12:06:59;;;;;;;4.43;2.70;;;8.00;98.00;;;;;;5009602;28;21109;-63
2022/12/05 12:09:40;;;;;;;3.57;2.73;;;7.90;98.00;;;;;;5009430;28;20986;-63
2022/12/05 12:12:18;;;;;;;2.30;1.70;;;7.80;98.00;;;;;;5009841;28;20463;-63
2022/12/05 12:14:51;;;;;;;3.93;2.53;;;7.70;98.00;;;;;;5009738;28;20456;-63
2022/12/05 12:17:26;;;;;;;7.70;3.40;;;7.60;98.00;;;;;;4992466;28;20469;-63
2022/12/05 12:20:17;;;;;;;5.67;4.20;;;7.60;98.00;;;;;;5009744;28;20489;-64
2022/12/05 12:23:00;;;;;;;4.93;2.40;;;7.70;98.00;;;;;;5001480;28;20473;-63
2022/12/05 12:25:35;;;;;;;4.23;2.67;;;7.70;98.00;;;;;;5009515;28;20460;-63
2022/12/05 12:28:10;;;;;;;7.30;3.03;;;7.80;98.00;;;;;;5009154;28;20981;-63
2022/12/05 12:30:53;;;;;;;6.50;3.30;;;7.90;98.00;;;;;;5009387;28;20499;-63
2022/12/05 12:33:32;;;;;;;4.13;2.17;;;7.90;98.00;;;;;;5011639;28;20459;-62
2022/12/05 12:36:10;;;;;;;5.23;2.30;;;7.90;98.00;;;;;;4990652;28;20475;-63
2022/12/05 12:38:57;;;;;;;3.37;2.47;;;7.90;98.00;;;;;;5009191;28;20469;-63
2022/12/05 12:41:50;;;;;;;4.70;2.60;;;8.00;98.00;;;;;;5009144;28;20466;-64
2022/12/05 12:44:41;;;;;;;12.33;2.13;;;8.10;98.00;;;;;;4998777;28;20812;-63
2022/12/05 12:47:14;;;;;;;2.03;1.87;;;8.20;98.00;;;;;;5009344;28;20474;-63
2022/12/05 12:49:57;;;;;;;4.63;2.40;;;8.20;98.00;;;;;;5006673;28;20862;-63
2022/12/05 12:52:28;;;;;;;3.43;2.27;;;8.10;98.00;;;;;;5008930;28;20467;-63
2022/12/05 12:55:17;;;;;;;4.83;2.50;;;8.20;98.00;;;;;;5008983;28;20517;-63
2022/12/05 12:58:00;;;;;;;3.83;2.30;;;8.20;98.00;;;;;;5009258;28;20460;-63
2022/12/05 13:00:42;;;;;;;5.57;3.23;;;8.10;98.00;;;;;;4991286;28;20826;-63
2022/12/05 13:03:16;;;;;;;5.50;2.70;;;8.00;98.00;;;;;;5009155;28;20867;-64
2022/12/05 13:05:48;;;;;;;3.73;3.00;;;7.90;98.00;;;;;;5009151;28;20465;-65
2022/12/05 13:08:23;;;;;;;8.03;3.83;;;7.90;98.00;;;;;;5008868;28;20469;-64
2022/12/05 13:10:52;;;;;;;6.17;3.93;;;7.80;98.00;;;;;;5009078;28;20501;-63
2022/12/05 13:13:22;;;;;;;3.57;2.93;;;7.80;98.00;;;;;;5008812;28;20822;-63
2022/12/05 13:15:53;;;;;;;4.30;2.20;;;7.70;98.00;;;;;;5012831;28;20472;-63
2022/12/05 13:18:22;;;;;;;5.70;3.00;;;7.60;98.00;;;;;;5012952;28;20897;-63
2022/12/05 13:20:53;;;;;;;6.40;3.40;;;7.70;98.00;;;;;;5012971;28;20519;-62
2022/12/05 13:23:24;;;;;;;4.57;2.67;;;7.70;98.00;;;;;;5012762;28;20463;-62
2022/12/05 13:25:54;;;;;;;3.60;2.03;;;7.70;98.00;;;;;;5012779;28;20453;-62
2022/12/05 13:28:28;;;;;;;4.23;2.20;;;7.80;98.00;;;;;;5012936;28;20485;-63
2022/12/05 13:31:02;;;;;;;5.40;3.03;;;7.80;98.00;;;;;;5012733;28;20497;-63